Preview of NWS' New Version of Forecast
This preview is not operational and should not be used for support decisions.
Latest weather observations around

BEN BOLT (BENC1)

Using English Units (Switch to International System of Units)
Date/ Time (PST) Wind (mph) Vis. (mi) Weather Sky Cond. Temp (°F) Rel. Humidity Wind Chill (°F) Heat Index (°F) Pressure Precip. (in)
Air Dwpt 6 hour Altimeter (inHg) Sea level (inHg) 1 hr 3 hr 6 hr
Max Min
Feb 25 16:59 SW 4   Clear   54 32     43%              
Feb 25 15:59 WSW 6   Clear   57 34     42%              
Feb 25 14:59 WSW 4   Clear   57 33     40%              
Feb 25 13:59 W 7   Clear   57 34     41%              
Feb 25 12:59 W 6   Clear   56 33     41%              
Feb 25 11:59 WSW 6   Clear   55 34     45%              
Feb 25 10:59 WSW 7   Clear   55 33     43%              
Feb 25 09:59 ENE 2   Clear   54 29     38%              
Feb 25 08:59 S 3   Clear   47 28     48% 46            
Feb 25 07:59 NNE 4   Clear   37 26     64% 34            
Feb 25 06:59 NNE 4   Clear   34 24     66% 30            
Feb 25 05:59 NNE 7   Clear   36 26     68% 30            
Feb 25 04:59 NNE 7   Clear   37 27     68% 32            
Feb 25 03:59 NNE 8   Clear   38 28     68% 32            
Feb 25 02:59 NE 8   Clear   38 28     67% 32            
Feb 25 01:59 N 8   Clear   40 28     63% 35            
Feb 25 00:59 NNE 5   Clear   39 28     64% 35            
Feb 24 23:59 NNE 4   Clear   37 28     70% 34            
Feb 24 22:59 NE 5   Clear   35 29     77% 31            
Feb 24 21:59 NNE 4   Clear   37 29     72% 34            
Feb 24 20:59 NNE 5   Clear   38 29     69% 34            
Feb 24 19:59 NNE 4   Clear   40 29     65% 37            
Feb 24 18:59 NE 4   Clear   43 28     56% 41            
Feb 24 17:59 SE 3   Clear   49 28     44% 49            
Feb 24 16:59 SSE 4   Clear   50 28     43% 49            
Feb 24 15:59 SSW 6   Clear   51 29     43%              
Feb 24 14:59 SW 7   Clear   52 29     41%              
Feb 24 13:59 SSW 11   Clear   51 25     36%              
Feb 24 12:59 SSW 13   Clear   51 24     35%              
Feb 24 11:59 SSW 11   Clear   50 23     35% 46            
Feb 24 10:59 SSW 11   Clear   49 23     35% 44            
Feb 24 09:59 SSW 7   Clear   47 25     42% 44            
Feb 24 08:59 NNE 1   Clear   38 28     66%              
Feb 24 07:59 NNE 2   Clear   33 21     62%              
Feb 24 06:59 NE 4   Clear   28 20     73% 23            
Notice The following observation data may not be complete
Feb 24 05:59 NNE 4   Clear     21      %              
Feb 24 04:59 NNE 5   Clear   28 21     76% 22            
Feb 24 03:59 NNE 5   Clear   28 22     79% 22            
Feb 24 02:59 NE 6   Clear   29 22     75% 23            
Feb 24 01:59 NNE 5   Clear   29        % 24            
Feb 24 00:59 NNE 3   Clear   30 23     75% 27            
Feb 23 23:59 NE 3   Clear   31 22     69% 28            
Feb 23 22:59 NNE 6   Clear   30        % 24            
Feb 23 21:59 NNE 4   Clear   31 22     69% 27            
Notice The following observation data may not be complete
Feb 23 20:59 NE 4   Clear     23      %              
Feb 23 19:59 NE 4   Clear   36 22     57% 33            
Feb 23 18:59 SW 1   Clear   40 19     43%              
Feb 23 17:59 NNW 3   Clear   46 19     33% 45            
Feb 23 16:59 NW 11   Clear   49 19     30% 44            
Feb 23 15:59 NNW 11   Clear   50 21     31% 46            
Feb 23 14:59 NW 10   Clear   50 22     33% 46            
Feb 23 13:59 NW 10   Clear   49 24     37% 45            
Feb 23 12:59 NNE 7   Clear   47 29     49% 44            
Feb 23 11:59 NE 6   Clear   45 26     47% 42            
Feb 23 10:59 SW 2   Clear   44 34     68%              
Feb 23 09:59 S 2   Clear   40 32     72%              
Feb 23 07:59 NNE 3   Clear   28 26     91% 25            
Feb 23 06:59 NE 4   Clear   25 24     97% 20            
Feb 23 05:59 NNE 3   Clear   25 25     99% 21            
Feb 23 04:59 NNE 4   Clear   26 26     99% 21            
Feb 23 03:59 NNE 3   Clear   27 27     100% 24            
Feb 23 02:59 NE 4   Clear   28 28     100% 23            
Feb 23 01:59 NNE 3   Clear   28 28     100% 25            
Feb 23 00:59 NNE 3   Clear   29 29     100% 26            
Feb 22 23:59 NE 1   Clear   30 30     100%              
Feb 22 22:59 NE 1   Clear   30 30     100%              
Feb 22 21:59 NE 2   Clear   32 32     100%              
Feb 22 20:59 NNE 5   Clear   32 32     100% 27            
Feb 22 19:59 N 2   Clear   35 34     97%              
Feb 22 18:59 ENE 4   Clear   35 34     96% 32            
Feb 22 17:59 NNE 11   Clear   38        % 31            
Jun 11 21:59 ENE 3   Clear   50 42     75% 50            
Jun 11 11:59 SSW 8   Clear   59 41     52%              
Jun 10 12:59 WSW 4   Clear   72 42     34%   70          
Jun 10 01:59 SE 2   Clear   51 45     80%              
Jun 09 07:59 WSW 1   Clear   62 58     86%              
Jun 09 01:59 Calm   Clear   58 56     92%              
Jun 08 20:59 ENE 2   Clear   63 56     78%              
Jun 08 17:59 E 3   Clear   66 53     63%              
Jun 08 07:59 NW 6   Clear   58 47     66%              
Jun 08 05:59 Calm   Clear   57 48     73%              
Jun 07 15:59 SW 8   Clear   80 41     25%   79          
Jun 05 22:59 NNE 2   Clear   64 47     54%              
Jun 05 19:59 NW 3   Clear   85 41     21%   82